sensor_id;sensor_type;location;lat;lon;timestamp;temperature;humidity
49379;DHT22;35254;47.990;-1.608;2022-09-09T00:04:33;16.60;79.00
49379;DHT22;35254;47.990;-1.608;2022-09-09T00:07:47;16.60;78.50
49379;DHT22;35254;47.990;-1.608;2022-09-09T00:09:53;16.60;78.90
49379;DHT22;35254;47.990;-1.608;2022-09-09T00:12:34;16.50;78.40
49379;DHT22;35254;47.990;-1.608;2022-09-09T00:15:12;16.50;79.20
49379;DHT22;35254;47.990;-1.608;2022-09-09T00:18:13;16.60;79.50
49379;DHT22;35254;47.990;-1.608;2022-09-09T00:23:19;16.50;79.80
49379;DHT22;35254;47.990;-1.608;2022-09-09T00:25:54;16.50;79.90
49379;DHT22;35254;47.990;-1.608;2022-09-09T00:28:27;16.50;79.60
49379;DHT22;35254;47.990;-1.608;2022-09-09T00:30:53;16.50;79.40
49379;DHT22;35254;47.990;-1.608;2022-09-09T00:33:23;16.40;79.40
49379;DHT22;35254;47.990;-1.608;2022-09-09T00:35:56;16.40;79.90
49379;DHT22;35254;47.990;-1.608;2022-09-09T00:38:25;16.40;79.50
49379;DHT22;35254;47.990;-1.608;2022-09-09T00:40:56;16.40;79.70
49379;DHT22;35254;47.990;-1.608;2022-09-09T00:45:55;16.30;79.50
49379;DHT22;35254;47.990;-1.608;2022-09-09T00:57:05;16.60;80.20
49379;DHT22;35254;47.990;-1.608;2022-09-09T01:02:35;16.50;80.40
49379;DHT22;35254;47.990;-1.608;2022-09-09T01:05:13;16.40;80.50
49379;DHT22;35254;47.990;-1.608;2022-09-09T01:07:44;16.40;80.50
49379;DHT22;35254;47.990;-1.608;2022-09-09T01:10:24;16.40;80.00
49379;DHT22;35254;47.990;-1.608;2022-09-09T01:12:52;16.40;80.50
49379;DHT22;35254;47.990;-1.608;2022-09-09T01:15:26;16.40;80.60
49379;DHT22;35254;47.990;-1.608;2022-09-09T01:18:13;16.40;80.80
49379;DHT22;35254;47.990;-1.608;2022-09-09T01:21:04;16.40;80.70
49379;DHT22;35254;47.990;-1.608;2022-09-09T01:28:47;16.30;80.40
49379;DHT22;35254;47.990;-1.608;2022-09-09T01:31:38;16.30;80.80
49379;DHT22;35254;47.990;-1.608;2022-09-09T01:34:14;16.30;80.70
49379;DHT22;35254;47.990;-1.608;2022-09-09T01:39:21;16.30;80.60
49379;DHT22;35254;47.990;-1.608;2022-09-09T01:41:47;16.30;81.30
49379;DHT22;35254;47.990;-1.608;2022-09-09T01:44:13;16.30;81.10
49379;DHT22;35254;47.990;-1.608;2022-09-09T01:46:38;16.30;81.30
49379;DHT22;35254;47.990;-1.608;2022-09-09T01:49:07;16.30;81.50
49379;DHT22;35254;47.990;-1.608;2022-09-09T01:51:34;16.30;81.20
49379;DHT22;35254;47.990;-1.608;2022-09-09T01:54:03;16.20;81.10
49379;DHT22;35254;47.990;-1.608;2022-09-09T02:04:42;16.10;81.20
49379;DHT22;35254;47.990;-1.608;2022-09-09T02:07:37;16.10;81.40
49379;DHT22;35254;47.990;-1.608;2022-09-09T02:12:45;16.10;81.50
49379;DHT22;35254;47.990;-1.608;2022-09-09T02:15:23;16.10;81.40
49379;DHT22;35254;47.990;-1.608;2022-09-09T02:17:52;16.10;81.60
49379;DHT22;35254;47.990;-1.608;2022-09-09T02:20:19;16.10;81.40
49379;DHT22;35254;47.990;-1.608;2022-09-09T02:22:49;16.00;81.50
49379;DHT22;35254;47.990;-1.608;2022-09-09T02:25:18;16.00;81.30
49379;DHT22;35254;47.990;-1.608;2022-09-09T02:27:47;16.00;81.30
49379;DHT22;35254;47.990;-1.608;2022-09-09T02:30:13;16.00;81.40
49379;DHT22;35254;47.990;-1.608;2022-09-09T02:32:42;16.00;81.00
49379;DHT22;35254;47.990;-1.608;2022-09-09T02:35:14;16.00;81.50
49379;DHT22;35254;47.990;-1.608;2022-09-09T02:37:42;16.00;81.20
49379;DHT22;35254;47.990;-1.608;2022-09-09T02:40:10;16.00;81.50
49379;DHT22;35254;47.990;-1.608;2022-09-09T02:42:42;16.10;81.70
49379;DHT22;35254;47.990;-1.608;2022-09-09T02:45:10;16.00;81.20
49379;DHT22;35254;47.990;-1.608;2022-09-09T02:48:03;16.00;81.40
49379;DHT22;35254;47.990;-1.608;2022-09-09T02:50:39;16.10;81.90
49379;DHT22;35254;47.990;-1.608;2022-09-09T02:58:04;16.10;81.40
49379;DHT22;35254;47.990;-1.608;2022-09-09T03:00:32;16.10;81.30
49379;DHT22;35254;47.990;-1.608;2022-09-09T03:02:58;16.10;81.70
49379;DHT22;35254;47.990;-1.608;2022-09-09T03:05:24;16.10;81.70
49379;DHT22;35254;47.990;-1.608;2022-09-09T03:07:50;16.20;81.60
49379;DHT22;35254;47.990;-1.608;2022-09-09T03:10:16;16.20;81.60
49379;DHT22;35254;47.990;-1.608;2022-09-09T03:12:43;16.30;81.40
49379;DHT22;35254;47.990;-1.608;2022-09-09T03:15:09;16.30;81.50
49379;DHT22;35254;47.990;-1.608;2022-09-09T03:17:35;16.20;81.30
49379;DHT22;35254;47.990;-1.608;2022-09-09T03:20:02;16.20;81.60
49379;DHT22;35254;47.990;-1.608;2022-09-09T03:22:28;16.30;81.50
49379;DHT22;35254;47.990;-1.608;2022-09-09T03:24:54;16.20;81.60
49379;DHT22;35254;47.990;-1.608;2022-09-09T03:27:19;16.20;81.40
49379;DHT22;35254;47.990;-1.608;2022-09-09T03:29:46;16.10;81.60
49379;DHT22;35254;47.990;-1.608;2022-09-09T03:32:12;16.20;81.60
49379;DHT22;35254;47.990;-1.608;2022-09-09T03:34:38;16.20;81.60
49379;DHT22;35254;47.990;-1.608;2022-09-09T03:37:05;16.20;81.70
49379;DHT22;35254;47.990;-1.608;2022-09-09T03:39:31;16.20;81.60
49379;DHT22;35254;47.990;-1.608;2022-09-09T03:41:57;16.20;81.60
49379;DHT22;35254;47.990;-1.608;2022-09-09T03:44:22;16.20;81.70
49379;DHT22;35254;47.990;-1.608;2022-09-09T03:46:48;16.20;81.60
49379;DHT22;35254;47.990;-1.608;2022-09-09T03:49:14;16.20;81.50
49379;DHT22;35254;47.990;-1.608;2022-09-09T03:51:40;16.20;81.60
49379;DHT22;35254;47.990;-1.608;2022-09-09T03:54:07;16.20;81.50
49379;DHT22;35254;47.990;-1.608;2022-09-09T03:56:35;16.20;81.70
49379;DHT22;35254;47.990;-1.608;2022-09-09T03:59:01;16.30;81.60
49379;DHT22;35254;47.990;-1.608;2022-09-09T04:01:27;16.30;81.40
49379;DHT22;35254;47.990;-1.608;2022-09-09T04:03:53;16.30;81.60
49379;DHT22;35254;47.990;-1.608;2022-09-09T04:06:20;16.30;81.50
49379;DHT22;35254;47.990;-1.608;2022-09-09T04:08:46;16.40;81.50
49379;DHT22;35254;47.990;-1.608;2022-09-09T04:11:14;16.30;81.50
49379;DHT22;35254;47.990;-1.608;2022-09-09T04:13:42;16.30;81.60
49379;DHT22;35254;47.990;-1.608;2022-09-09T04:16:11;16.30;81.60
49379;DHT22;35254;47.990;-1.608;2022-09-09T04:18:38;16.30;81.70
49379;DHT22;35254;47.990;-1.608;2022-09-09T04:21:04;16.30;81.50
49379;DHT22;35254;47.990;-1.608;2022-09-09T04:23:31;16.40;81.50
49379;DHT22;35254;47.990;-1.608;2022-09-09T04:25:58;16.40;81.60
49379;DHT22;35254;47.990;-1.608;2022-09-09T04:28:26;16.40;81.60
49379;DHT22;35254;47.990;-1.608;2022-09-09T04:30:52;16.40;81.50
49379;DHT22;35254;47.990;-1.608;2022-09-09T04:33:18;16.30;81.50
49379;DHT22;35254;47.990;-1.608;2022-09-09T04:35:45;16.30;81.40
49379;DHT22;35254;47.990;-1.608;2022-09-09T04:38:12;16.20;81.40
49379;DHT22;35254;47.990;-1.608;2022-09-09T04:40:38;16.20;81.50
49379;DHT22;35254;47.990;-1.608;2022-09-09T04:43:08;16.20;81.30
49379;DHT22;35254;47.990;-1.608;2022-09-09T04:45:34;16.10;81.60
49379;DHT22;35254;47.990;-1.608;2022-09-09T04:48:00;16.10;81.60
49379;DHT22;35254;47.990;-1.608;2022-09-09T04:50:26;16.00;81.90
49379;DHT22;35254;47.990;-1.608;2022-09-09T04:52:51;16.00;82.00
49379;DHT22;35254;47.990;-1.608;2022-09-09T04:55:17;16.00;82.00
49379;DHT22;35254;47.990;-1.608;2022-09-09T04:57:43;16.00;82.00
49379;DHT22;35254;47.990;-1.608;2022-09-09T05:00:09;16.10;81.90
49379;DHT22;35254;47.990;-1.608;2022-09-09T05:02:38;16.10;82.10
49379;DHT22;35254;47.990;-1.608;2022-09-09T05:05:05;16.10;81.90
49379;DHT22;35254;47.990;-1.608;2022-09-09T05:07:31;16.10;82.20
49379;DHT22;35254;47.990;-1.608;2022-09-09T05:09:57;16.20;82.20
49379;DHT22;35254;47.990;-1.608;2022-09-09T05:12:23;16.20;82.00
49379;DHT22;35254;47.990;-1.608;2022-09-09T05:14:53;16.20;82.10
49379;DHT22;35254;47.990;-1.608;2022-09-09T05:17:19;16.20;81.90
49379;DHT22;35254;47.990;-1.608;2022-09-09T05:19:45;16.20;81.80
49379;DHT22;35254;47.990;-1.608;2022-09-09T05:22:11;16.20;81.90
49379;DHT22;35254;47.990;-1.608;2022-09-09T05:24:37;16.20;81.90
49379;DHT22;35254;47.990;-1.608;2022-09-09T05:27:04;16.20;81.80
49379;DHT22;35254;47.990;-1.608;2022-09-09T05:29:32;16.10;82.10
49379;DHT22;35254;47.990;-1.608;2022-09-09T05:31:59;16.00;82.20
49379;DHT22;35254;47.990;-1.608;2022-09-09T05:34:25;16.00;82.10
49379;DHT22;35254;47.990;-1.608;2022-09-09T05:36:50;16.00;82.30
49379;DHT22;35254;47.990;-1.608;2022-09-09T05:39:17;15.90;82.40
49379;DHT22;35254;47.990;-1.608;2022-09-09T05:41:43;15.90;82.30
49379;DHT22;35254;47.990;-1.608;2022-09-09T05:44:08;15.90;82.30
49379;DHT22;35254;47.990;-1.608;2022-09-09T05:46:34;15.90;82.40
49379;DHT22;35254;47.990;-1.608;2022-09-09T05:49:00;15.80;82.20
49379;DHT22;35254;47.990;-1.608;2022-09-09T05:51:28;15.80;82.60
49379;DHT22;35254;47.990;-1.608;2022-09-09T05:53:55;15.80;82.30
49379;DHT22;35254;47.990;-1.608;2022-09-09T05:56:25;15.70;82.20
49379;DHT22;35254;47.990;-1.608;2022-09-09T05:58:52;15.80;82.30
49379;DHT22;35254;47.990;-1.608;2022-09-09T06:01:28;15.80;82.60
49379;DHT22;35254;47.990;-1.608;2022-09-09T06:03:54;15.80;82.60
49379;DHT22;35254;47.990;-1.608;2022-09-09T06:06:22;15.80;82.30
49379;DHT22;35254;47.990;-1.608;2022-09-09T06:08:53;15.90;82.50
49379;DHT22;35254;47.990;-1.608;2022-09-09T06:11:22;15.90;82.40
49379;DHT22;35254;47.990;-1.608;2022-09-09T06:13:49;16.00;82.40
49379;DHT22;35254;47.990;-1.608;2022-09-09T06:16:19;16.00;82.40
49379;DHT22;35254;47.990;-1.608;2022-09-09T06:18:45;16.00;82.30
49379;DHT22;35254;47.990;-1.608;2022-09-09T06:21:16;16.00;82.20
49379;DHT22;35254;47.990;-1.608;2022-09-09T06:23:43;16.10;82.30
49379;DHT22;35254;47.990;-1.608;2022-09-09T06:26:21;16.20;82.20
49379;DHT22;35254;47.990;-1.608;2022-09-09T06:28:48;16.20;82.30
49379;DHT22;35254;47.990;-1.608;2022-09-09T06:31:16;16.30;82.40
49379;DHT22;35254;47.990;-1.608;2022-09-09T06:33:50;16.30;82.10
49379;DHT22;35254;47.990;-1.608;2022-09-09T06:36:21;16.40;82.20
49379;DHT22;35254;47.990;-1.608;2022-09-09T06:38:47;16.50;82.10
49379;DHT22;35254;47.990;-1.608;2022-09-09T06:41:15;16.60;82.20
49379;DHT22;35254;47.990;-1.608;2022-09-09T06:43:41;16.70;82.00
49379;DHT22;35254;47.990;-1.608;2022-09-09T06:46:11;16.80;81.70
49379;DHT22;35254;47.990;-1.608;2022-09-09T06:48:39;16.80;81.90
49379;DHT22;35254;47.990;-1.608;2022-09-09T06:51:11;16.90;81.40
49379;DHT22;35254;47.990;-1.608;2022-09-09T06:53:38;17.00;81.30
49379;DHT22;35254;47.990;-1.608;2022-09-09T06:58:45;17.20;81.60
49379;DHT22;35254;47.990;-1.608;2022-09-09T07:01:13;17.30;81.00
49379;DHT22;35254;47.990;-1.608;2022-09-09T07:03:39;17.30;80.80
49379;DHT22;35254;47.990;-1.608;2022-09-09T07:06:06;17.30;81.20
49379;DHT22;35254;47.990;-1.608;2022-09-09T07:08:33;17.40;81.20
49379;DHT22;35254;47.990;-1.608;2022-09-09T07:11:05;17.40;80.70
49379;DHT22;35254;47.990;-1.608;2022-09-09T07:13:32;17.70;81.60
49379;DHT22;35254;47.990;-1.608;2022-09-09T07:16:09;17.90;81.00
49379;DHT22;35254;47.990;-1.608;2022-09-09T07:18:35;18.00;79.80
49379;DHT22;35254;47.990;-1.608;2022-09-09T07:21:01;18.40;79.20
49379;DHT22;35254;47.990;-1.608;2022-09-09T07:23:27;19.10;79.30
49379;DHT22;35254;47.990;-1.608;2022-09-09T07:25:53;19.60;77.30
49379;DHT22;35254;47.990;-1.608;2022-09-09T07:28:20;20.20;77.30
49379;DHT22;35254;47.990;-1.608;2022-09-09T07:30:59;20.70;74.10
49379;DHT22;35254;47.990;-1.608;2022-09-09T07:33:29;21.30;73.80
49379;DHT22;35254;47.990;-1.608;2022-09-09T07:36:23;21.30;71.30
49379;DHT22;35254;47.990;-1.608;2022-09-09T07:38:50;21.30;71.30
49379;DHT22;35254;47.990;-1.608;2022-09-09T07:41:32;21.70;71.00
49379;DHT22;35254;47.990;-1.608;2022-09-09T07:44:03;22.20;71.80
49379;DHT22;35254;47.990;-1.608;2022-09-09T07:46:29;23.20;71.70
49379;DHT22;35254;47.990;-1.608;2022-09-09T07:48:56;23.60;67.60
49379;DHT22;35254;47.990;-1.608;2022-09-09T07:51:23;24.00;65.80
49379;DHT22;35254;47.990;-1.608;2022-09-09T07:53:53;24.10;64.80
49379;DHT22;35254;47.990;-1.608;2022-09-09T07:56:20;23.50;64.30
49379;DHT22;35254;47.990;-1.608;2022-09-09T07:58:49;23.20;66.50
49379;DHT22;35254;47.990;-1.608;2022-09-09T08:01:18;22.40;65.50
49379;DHT22;35254;47.990;-1.608;2022-09-09T08:03:45;21.90;67.20
49379;DHT22;35254;47.990;-1.608;2022-09-09T08:06:12;21.60;68.10
49379;DHT22;35254;47.990;-1.608;2022-09-09T08:08:38;21.50;67.90
49379;DHT22;35254;47.990;-1.608;2022-09-09T08:11:11;21.50;68.40
49379;DHT22;35254;47.990;-1.608;2022-09-09T08:13:38;21.80;67.60
49379;DHT22;35254;47.990;-1.608;2022-09-09T08:18:31;22.90;66.70
49379;DHT22;35254;47.990;-1.608;2022-09-09T08:20:57;22.70;64.10
49379;DHT22;35254;47.990;-1.608;2022-09-09T08:23:22;22.00;64.90
49379;DHT22;35254;47.990;-1.608;2022-09-09T08:25:48;21.30;64.60
49379;DHT22;35254;47.990;-1.608;2022-09-09T08:28:15;21.50;67.80
49379;DHT22;35254;47.990;-1.608;2022-09-09T08:30:41;21.80;65.70
49379;DHT22;35254;47.990;-1.608;2022-09-09T08:33:09;22.90;66.60
49379;DHT22;35254;47.990;-1.608;2022-09-09T08:35:34;24.40;63.10
49379;DHT22;35254;47.990;-1.608;2022-09-09T08:38:00;25.20;60.60
49379;DHT22;35254;47.990;-1.608;2022-09-09T08:40:29;25.80;59.90
49379;DHT22;35254;47.990;-1.608;2022-09-09T08:43:00;26.40;58.50
49379;DHT22;35254;47.990;-1.608;2022-09-09T08:45:29;27.50;57.30
49379;DHT22;35254;47.990;-1.608;2022-09-09T08:50:28;27.20;58.80
49379;DHT22;35254;47.990;-1.608;2022-09-09T08:55:45;26.50;55.40
49379;DHT22;35254;47.990;-1.608;2022-09-09T08:58:22;26.90;53.70
49379;DHT22;35254;47.990;-1.608;2022-09-09T09:11:23;28.70;50.10
49379;DHT22;35254;47.990;-1.608;2022-09-09T09:13:57;28.00;49.50
49379;DHT22;35254;47.990;-1.608;2022-09-09T09:19:16;27.90;50.10
49379;DHT22;35254;47.990;-1.608;2022-09-09T09:21:45;26.90;50.00
49379;DHT22;35254;47.990;-1.608;2022-09-09T09:24:55;26.00;49.90
49379;DHT22;35254;47.990;-1.608;2022-09-09T09:27:34;25.30;51.70
49379;DHT22;35254;47.990;-1.608;2022-09-09T09:30:10;25.10;52.50
49379;DHT22;35254;47.990;-1.608;2022-09-09T09:32:39;25.10;53.30
49379;DHT22;35254;47.990;-1.608;2022-09-09T09:35:12;25.30;54.30
49379;DHT22;35254;47.990;-1.608;2022-09-09T09:37:40;25.40;52.50
49379;DHT22;35254;47.990;-1.608;2022-09-09T09:40:16;24.80;52.70
49379;DHT22;35254;47.990;-1.608;2022-09-09T09:42:58;25.60;53.20
49379;DHT22;35254;47.990;-1.608;2022-09-09T09:48:09;26.90;50.20
49379;DHT22;35254;47.990;-1.608;2022-09-09T09:50:53;26.30;49.80
49379;DHT22;35254;47.990;-1.608;2022-09-09T09:53:28;25.80;49.90
49379;DHT22;35254;47.990;-1.608;2022-09-09T09:56:07;26.10;51.70
49379;DHT22;35254;47.990;-1.608;2022-09-09T10:01:28;26.20;51.60
49379;DHT22;35254;47.990;-1.608;2022-09-09T10:03:59;26.10;50.30
49379;DHT22;35254;47.990;-1.608;2022-09-09T10:06:36;26.00;50.10
49379;DHT22;35254;47.990;-1.608;2022-09-09T10:09:29;25.80;50.80
49379;DHT22;35254;47.990;-1.608;2022-09-09T10:22:52;24.30;54.70
49379;DHT22;35254;47.990;-1.608;2022-09-09T10:28:15;25.30;52.50
49379;DHT22;35254;47.990;-1.608;2022-09-09T10:31:09;25.80;54.20
49379;DHT22;35254;47.990;-1.608;2022-09-09T10:36:24;26.70;49.40
49379;DHT22;35254;47.990;-1.608;2022-09-09T10:46:52;24.40;52.60
49379;DHT22;35254;47.990;-1.608;2022-09-09T10:55:14;24.50;52.60
49379;DHT22;35254;47.990;-1.608;2022-09-09T10:57:48;24.60;53.70
49379;DHT22;35254;47.990;-1.608;2022-09-09T11:00:47;24.80;53.30
49379;DHT22;35254;47.990;-1.608;2022-09-09T11:03:27;25.00;52.50
49379;DHT22;35254;47.990;-1.608;2022-09-09T11:06:04;24.80;52.60
49379;DHT22;35254;47.990;-1.608;2022-09-09T11:08:34;25.10;53.40
49379;DHT22;35254;47.990;-1.608;2022-09-09T11:14:09;27.10;50.80
49379;DHT22;35254;47.990;-1.608;2022-09-09T11:19:41;27.30;48.30
49379;DHT22;35254;47.990;-1.608;2022-09-09T11:22:14;27.20;48.40
49379;DHT22;35254;47.990;-1.608;2022-09-09T11:28:01;27.30;47.70
49379;DHT22;35254;47.990;-1.608;2022-09-09T11:33:42;27.50;48.70
49379;DHT22;35254;47.990;-1.608;2022-09-09T11:39:17;28.70;47.80
49379;DHT22;35254;47.990;-1.608;2022-09-09T11:41:48;29.00;44.80
49379;DHT22;35254;47.990;-1.608;2022-09-09T11:44:23;28.60;45.10
49379;DHT22;35254;47.990;-1.608;2022-09-09T11:46:52;28.60;46.30
49379;DHT22;35254;47.990;-1.608;2022-09-09T11:49:39;29.20;46.30
49379;DHT22;35254;47.990;-1.608;2022-09-09T11:52:34;29.40;44.10
49379;DHT22;35254;47.990;-1.608;2022-09-09T11:58:03;28.30;44.30
49379;DHT22;35254;47.990;-1.608;2022-09-09T12:00:39;28.70;44.40
49379;DHT22;35254;47.990;-1.608;2022-09-09T12:03:28;28.20;43.60
49379;DHT22;35254;47.990;-1.608;2022-09-09T12:05:52;27.50;43.70
49379;DHT22;35254;47.990;-1.608;2022-09-09T12:08:26;26.90;45.70
49379;DHT22;35254;47.990;-1.608;2022-09-09T12:10:58;26.60;46.70
49379;DHT22;35254;47.990;-1.608;2022-09-09T12:13:26;26.20;49.20
49379;DHT22;35254;47.990;-1.608;2022-09-09T12:15:57;26.20;49.70
49379;DHT22;35254;47.990;-1.608;2022-09-09T12:18:31;26.40;50.20
49379;DHT22;35254;47.990;-1.608;2022-09-09T12:21:15;26.50;50.20
49379;DHT22;35254;47.990;-1.608;2022-09-09T12:23:56;26.50;51.50
49379;DHT22;35254;47.990;-1.608;2022-09-09T12:34:51;26.20;53.60
49379;DHT22;35254;47.990;-1.608;2022-09-09T12:39:58;27.20;53.80
49379;DHT22;35254;47.990;-1.608;2022-09-09T12:42:25;27.40;52.20
49379;DHT22;35254;47.990;-1.608;2022-09-09T12:44:59;27.40;53.30
49379;DHT22;35254;47.990;-1.608;2022-09-09T12:47:46;27.50;49.90
49379;DHT22;35254;47.990;-1.608;2022-09-09T12:50:21;26.70;49.70
49379;DHT22;35254;47.990;-1.608;2022-09-09T12:52:49;26.20;50.90
49379;DHT22;35254;47.990;-1.608;2022-09-09T12:55:29;25.90;51.30
49379;DHT22;35254;47.990;-1.608;2022-09-09T12:57:56;25.80;51.20
49379;DHT22;35254;47.990;-1.608;2022-09-09T13:00:24;25.70;52.30
49379;DHT22;35254;47.990;-1.608;2022-09-09T13:02:58;26.10;53.00
49379;DHT22;35254;47.990;-1.608;2022-09-09T13:05:26;26.70;51.90
49379;DHT22;35254;47.990;-1.608;2022-09-09T13:08:01;27.10;49.70
49379;DHT22;35254;47.990;-1.608;2022-09-09T13:10:30;26.60;49.70
49379;DHT22;35254;47.990;-1.608;2022-09-09T13:12:57;26.20;52.20
49379;DHT22;35254;47.990;-1.608;2022-09-09T13:15:26;26.60;52.00
49379;DHT22;35254;47.990;-1.608;2022-09-09T13:18:01;26.60;53.10
49379;DHT22;35254;47.990;-1.608;2022-09-09T13:20:28;26.60;51.70
49379;DHT22;35254;47.990;-1.608;2022-09-09T13:22:54;26.40;52.10
49379;DHT22;35254;47.990;-1.608;2022-09-09T13:25:29;26.50;52.80
49379;DHT22;35254;47.990;-1.608;2022-09-09T13:28:03;26.60;51.80
49379;DHT22;35254;47.990;-1.608;2022-09-09T13:30:34;26.70;52.20
49379;DHT22;35254;47.990;-1.608;2022-09-09T13:35:44;26.30;53.10
49379;DHT22;35254;47.990;-1.608;2022-09-09T13:38:14;26.00;52.60
49379;DHT22;35254;47.990;-1.608;2022-09-09T13:40:40;25.40;53.40
49379;DHT22;35254;47.990;-1.608;2022-09-09T13:43:15;25.00;53.70
49379;DHT22;35254;47.990;-1.608;2022-09-09T13:45:53;24.70;54.70
49379;DHT22;35254;47.990;-1.608;2022-09-09T13:48:19;24.80;55.00
49379;DHT22;35254;47.990;-1.608;2022-09-09T13:50:54;24.90;55.50
49379;DHT22;35254;47.990;-1.608;2022-09-09T13:53:20;25.10;55.00
49379;DHT22;35254;47.990;-1.608;2022-09-09T13:55:46;24.80;54.80
49379;DHT22;35254;47.990;-1.608;2022-09-09T13:58:16;24.70;55.60
49379;DHT22;35254;47.990;-1.608;2022-09-09T14:00:45;24.40;56.10
49379;DHT22;35254;47.990;-1.608;2022-09-09T14:03:12;24.20;57.10
49379;DHT22;35254;47.990;-1.608;2022-09-09T14:05:37;24.40;57.10
49379;DHT22;35254;47.990;-1.608;2022-09-09T14:08:05;24.70;57.40
49379;DHT22;35254;47.990;-1.608;2022-09-09T14:10:31;24.70;57.20
49379;DHT22;35254;47.990;-1.608;2022-09-09T14:12:57;24.70;57.00
49379;DHT22;35254;47.990;-1.608;2022-09-09T14:15:22;25.00;57.10
49379;DHT22;35254;47.990;-1.608;2022-09-09T14:17:48;25.10;55.80
49379;DHT22;35254;47.990;-1.608;2022-09-09T14:20:14;25.20;56.10
49379;DHT22;35254;47.990;-1.608;2022-09-09T14:22:42;25.50;56.30
49379;DHT22;35254;47.990;-1.608;2022-09-09T14:25:09;25.60;55.30
49379;DHT22;35254;47.990;-1.608;2022-09-09T14:27:35;25.30;54.20
49379;DHT22;35254;47.990;-1.608;2022-09-09T14:30:00;24.80;55.20
49379;DHT22;35254;47.990;-1.608;2022-09-09T14:32:26;24.40;55.40
49379;DHT22;35254;47.990;-1.608;2022-09-09T14:34:52;24.20;55.50
49379;DHT22;35254;47.990;-1.608;2022-09-09T14:37:18;24.10;55.50
49379;DHT22;35254;47.990;-1.608;2022-09-09T14:39:44;23.80;55.00
49379;DHT22;35254;47.990;-1.608;2022-09-09T14:42:12;23.60;55.10
49379;DHT22;35254;47.990;-1.608;2022-09-09T14:44:38;23.50;55.20
49379;DHT22;35254;47.990;-1.608;2022-09-09T14:47:07;23.20;55.90
49379;DHT22;35254;47.990;-1.608;2022-09-09T14:49:34;23.00;56.90
49379;DHT22;35254;47.990;-1.608;2022-09-09T14:51:59;22.90;57.00
49379;DHT22;35254;47.990;-1.608;2022-09-09T14:54:25;23.00;57.50
49379;DHT22;35254;47.990;-1.608;2022-09-09T14:56:51;23.00;57.80
49379;DHT22;35254;47.990;-1.608;2022-09-09T14:59:17;22.80;57.30
49379;DHT22;35254;47.990;-1.608;2022-09-09T15:01:42;22.70;57.00
49379;DHT22;35254;47.990;-1.608;2022-09-09T15:04:12;22.70;57.20
49379;DHT22;35254;47.990;-1.608;2022-09-09T15:06:40;22.70;57.40
49379;DHT22;35254;47.990;-1.608;2022-09-09T15:09:08;22.70;57.20
49379;DHT22;35254;47.990;-1.608;2022-09-09T15:11:35;22.70;57.00
49379;DHT22;35254;47.990;-1.608;2022-09-09T15:14:06;22.60;56.50
49379;DHT22;35254;47.990;-1.608;2022-09-09T15:16:32;22.50;56.90
49379;DHT22;35254;47.990;-1.608;2022-09-09T15:18:59;22.60;57.30
49379;DHT22;35254;47.990;-1.608;2022-09-09T15:21:31;22.70;57.00
49379;DHT22;35254;47.990;-1.608;2022-09-09T15:23:58;22.60;56.90
49379;DHT22;35254;47.990;-1.608;2022-09-09T15:26:25;22.50;57.40
49379;DHT22;35254;47.990;-1.608;2022-09-09T15:28:51;22.60;57.70
49379;DHT22;35254;47.990;-1.608;2022-09-09T15:31:18;22.60;58.50
49379;DHT22;35254;47.990;-1.608;2022-09-09T15:33:52;22.70;59.00
49379;DHT22;35254;47.990;-1.608;2022-09-09T15:36:19;22.80;58.70
49379;DHT22;35254;47.990;-1.608;2022-09-09T15:38:46;22.80;58.40
49379;DHT22;35254;47.990;-1.608;2022-09-09T15:41:13;22.90;59.50
49379;DHT22;35254;47.990;-1.608;2022-09-09T15:43:39;22.90;60.00
49379;DHT22;35254;47.990;-1.608;2022-09-09T15:46:41;23.20;59.50
49379;DHT22;35254;47.990;-1.608;2022-09-09T15:49:15;23.40;59.20
49379;DHT22;35254;47.990;-1.608;2022-09-09T15:51:44;23.60;58.70
49379;DHT22;35254;47.990;-1.608;2022-09-09T15:54:15;23.40;58.20
49379;DHT22;35254;47.990;-1.608;2022-09-09T15:56:47;23.30;59.10
49379;DHT22;35254;47.990;-1.608;2022-09-09T15:59:15;23.20;59.10
49379;DHT22;35254;47.990;-1.608;2022-09-09T16:01:41;23.40;59.10
49379;DHT22;35254;47.990;-1.608;2022-09-09T16:04:08;23.30;59.10
49379;DHT22;35254;47.990;-1.608;2022-09-09T16:06:34;23.40;59.40
49379;DHT22;35254;47.990;-1.608;2022-09-09T16:09:02;23.40;58.80
49379;DHT22;35254;47.990;-1.608;2022-09-09T16:11:30;23.50;58.80
49379;DHT22;35254;47.990;-1.608;2022-09-09T16:13:57;23.40;58.50
49379;DHT22;35254;47.990;-1.608;2022-09-09T16:16:27;23.20;58.10
49379;DHT22;35254;47.990;-1.608;2022-09-09T16:18:55;23.10;58.70
49379;DHT22;35254;47.990;-1.608;2022-09-09T16:21:24;22.90;58.90
49379;DHT22;35254;47.990;-1.608;2022-09-09T16:23:51;22.90;59.40
49379;DHT22;35254;47.990;-1.608;2022-09-09T16:26:19;22.90;59.30
49379;DHT22;35254;47.990;-1.608;2022-09-09T16:28:45;22.80;59.50
49379;DHT22;35254;47.990;-1.608;2022-09-09T16:31:16;22.80;59.90
49379;DHT22;35254;47.990;-1.608;2022-09-09T16:33:42;22.90;60.00
49379;DHT22;35254;47.990;-1.608;2022-09-09T16:36:10;22.90;59.70
49379;DHT22;35254;47.990;-1.608;2022-09-09T16:38:37;23.00;60.00
49379;DHT22;35254;47.990;-1.608;2022-09-09T16:41:04;23.00;59.80
49379;DHT22;35254;47.990;-1.608;2022-09-09T16:43:31;22.90;59.90
49379;DHT22;35254;47.990;-1.608;2022-09-09T16:45:57;22.80;59.90
49379;DHT22;35254;47.990;-1.608;2022-09-09T16:48:34;22.80;60.00
49379;DHT22;35254;47.990;-1.608;2022-09-09T16:51:11;22.70;59.80
49379;DHT22;35254;47.990;-1.608;2022-09-09T16:53:37;22.70;60.00
49379;DHT22;35254;47.990;-1.608;2022-09-09T16:56:11;22.60;60.10
49379;DHT22;35254;47.990;-1.608;2022-09-09T16:58:37;22.70;60.40
49379;DHT22;35254;47.990;-1.608;2022-09-09T17:01:04;22.60;60.50
49379;DHT22;35254;47.990;-1.608;2022-09-09T17:03:30;22.60;60.40
49379;DHT22;35254;47.990;-1.608;2022-09-09T17:05:58;22.70;60.60
49379;DHT22;35254;47.990;-1.608;2022-09-09T17:08:30;22.70;60.60
49379;DHT22;35254;47.990;-1.608;2022-09-09T17:10:56;22.70;60.70
49379;DHT22;35254;47.990;-1.608;2022-09-09T17:13:22;22.70;60.80
49379;DHT22;35254;47.990;-1.608;2022-09-09T17:15:47;22.60;60.90
49379;DHT22;35254;47.990;-1.608;2022-09-09T17:18:13;22.50;61.20
49379;DHT22;35254;47.990;-1.608;2022-09-09T17:20:40;22.50;61.10
49379;DHT22;35254;47.990;-1.608;2022-09-09T17:23:07;22.40;61.40
49379;DHT22;35254;47.990;-1.608;2022-09-09T17:25:33;22.40;61.50
49379;DHT22;35254;47.990;-1.608;2022-09-09T17:27:59;22.30;61.70
49379;DHT22;35254;47.990;-1.608;2022-09-09T17:30:26;22.20;62.30
49379;DHT22;35254;47.990;-1.608;2022-09-09T17:32:51;22.20;62.00
49379;DHT22;35254;47.990;-1.608;2022-09-09T17:35:17;22.20;61.50
49379;DHT22;35254;47.990;-1.608;2022-09-09T17:37:43;22.20;61.50
49379;DHT22;35254;47.990;-1.608;2022-09-09T17:40:10;22.20;62.00
49379;DHT22;35254;47.990;-1.608;2022-09-09T17:42:36;22.20;62.30
49379;DHT22;35254;47.990;-1.608;2022-09-09T17:45:02;22.10;62.10
49379;DHT22;35254;47.990;-1.608;2022-09-09T17:47:28;22.10;62.10